createdAt,value
2017-12-01T00:00:34.143Z,1000.04
2017-12-01T00:01:09.559Z,1000.01
2017-12-01T00:01:44.938Z,1000.02
2017-12-01T00:02:19.979Z,999.99
2017-12-01T00:02:55.282Z,1000.01
2017-12-01T00:03:30.573Z,1000.03
2017-12-01T00:04:05.743Z,1000.03
2017-12-01T00:04:40.832Z,1000.05
2017-12-01T00:05:16.051Z,1000.02
2017-12-01T00:05:51.446Z,1000.02
2017-12-01T00:06:26.749Z,1000.00
2017-12-01T00:07:02.069Z,1000.00
2017-12-01T00:07:37.794Z,1000.01
2017-12-01T00:08:13.011Z,1000.01
2017-12-01T00:08:48.495Z,1000.03
2017-12-01T00:09:23.800Z,1000.05
2017-12-01T00:09:59.345Z,1000.10
2017-12-01T00:10:34.543Z,1000.07
2017-12-01T00:11:09.850Z,1000.10
2017-12-01T00:11:45.237Z,1000.15
2017-12-01T00:12:20.557Z,1000.18
2017-12-01T00:12:55.897Z,1000.16
2017-12-01T00:13:31.183Z,1000.17
2017-12-01T00:14:06.086Z,1000.16
2017-12-01T00:14:41.386Z,1000.18
2017-12-01T00:15:16.801Z,1000.17
2017-12-01T00:15:51.893Z,1000.23
2017-12-01T00:16:27.121Z,1000.20
2017-12-01T00:17:02.537Z,1000.20
2017-12-01T00:17:37.825Z,1000.21
2017-12-01T00:18:13.076Z,1000.21
2017-12-01T00:18:48.272Z,1000.25
2017-12-01T00:19:23.702Z,1000.26
2017-12-01T00:19:59.120Z,1000.24
2017-12-01T00:20:34.313Z,1000.21
2017-12-01T00:21:09.325Z,1000.24
2017-12-01T00:21:44.730Z,1000.25
2017-12-01T00:22:20.327Z,1000.27
2017-12-01T00:22:55.643Z,1000.27
2017-12-01T00:23:30.857Z,1000.24
2017-12-01T00:24:06.164Z,1000.26
2017-12-01T00:24:41.454Z,1000.27
2017-12-01T00:25:16.666Z,1000.26
2017-12-01T00:25:52.457Z,1000.29
2017-12-01T00:26:27.759Z,1000.32
2017-12-01T00:27:02.982Z,1000.32
2017-12-01T00:27:38.475Z,1000.29
2017-12-01T00:28:13.683Z,1000.33
2017-12-01T00:28:48.601Z,1000.35
2017-12-01T00:29:23.808Z,1000.34
2017-12-01T00:29:58.819Z,1000.38
2017-12-01T00:30:34.114Z,1000.37
2017-12-01T00:31:09.323Z,1000.35
2017-12-01T00:31:44.610Z,1000.37
2017-12-01T00:32:19.816Z,1000.35
2017-12-01T00:32:55.330Z,1000.39
2017-12-01T00:33:30.415Z,1000.39
2017-12-01T00:34:05.957Z,1000.39
2017-12-01T00:34:41.041Z,1000.41
2017-12-01T00:35:16.248Z,1000.38
2017-12-01T00:35:51.645Z,1000.35
2017-12-01T00:36:27.049Z,1000.37
2017-12-01T00:37:02.357Z,1000.38
2017-12-01T00:37:37.352Z,1000.38
2017-12-01T00:38:12.678Z,1000.35
2017-12-01T00:38:48.141Z,1000.38
2017-12-01T00:39:23.678Z,1000.35
2017-12-01T00:39:59.088Z,1000.40
2017-12-01T00:40:34.489Z,1000.38
2017-12-01T00:41:09.809Z,1000.42
2017-12-01T00:41:44.993Z,1000.42
2017-12-01T00:42:20.206Z,1000.45
2017-12-01T00:42:55.814Z,1000.42
2017-12-01T00:43:31.199Z,1000.44
2017-12-01T00:44:06.514Z,1000.46
2017-12-01T00:44:41.824Z,1000.47
2017-12-01T00:45:17.239Z,1000.48
2017-12-01T00:45:52.728Z,1000.49
2017-12-01T00:46:28.037Z,1000.53
2017-12-01T00:47:03.440Z,1000.51
2017-12-01T00:47:38.740Z,1000.49
2017-12-01T00:48:14.059Z,1000.50
2017-12-01T00:48:49.437Z,1000.54
2017-12-01T00:49:24.654Z,1000.52
2017-12-01T00:49:59.693Z,1000.53
2017-12-01T00:50:34.781Z,1000.52
2017-12-01T00:51:10.511Z,1000.53
2017-12-01T00:51:45.997Z,1000.54
2017-12-01T00:52:21.313Z,1000.52
2017-12-01T00:52:56.624Z,1000.56
2017-12-01T00:53:31.719Z,1000.54
2017-12-01T00:54:07.035Z,1000.53
2017-12-01T00:54:42.522Z,1000.56
2017-12-01T00:55:17.762Z,1000.57
2017-12-01T00:55:52.648Z,1000.54
2017-12-01T00:56:28.163Z,1000.57
2017-12-01T00:57:03.590Z,1000.57
2017-12-01T00:57:39.000Z,1000.57
2017-12-01T00:58:14.330Z,1000.56
2017-12-01T00:58:49.510Z,1000.57
2017-12-01T00:59:24.930Z,1000.58
2017-12-01T00:59:59.934Z,1000.57
2017-12-01T01:00:35.160Z,1000.59
2017-12-01T01:01:10.070Z,1000.59
2017-12-01T01:01:45.267Z,1000.60
2017-12-01T01:02:20.582Z,1000.61
2017-12-01T01:02:55.668Z,1000.61
2017-12-01T01:03:30.974Z,1000.62
2017-12-01T01:04:07.232Z,1000.64
2017-12-01T01:04:42.326Z,1000.63
2017-12-01T01:05:17.745Z,1000.66
2017-12-01T01:05:53.160Z,1000.68
2017-12-01T01:06:28.472Z,1000.69
2017-12-01T01:07:03.966Z,1000.67
2017-12-01T01:07:39.571Z,1000.68
2017-12-01T01:08:14.889Z,1000.71
2017-12-01T01:08:50.370Z,1000.79
2017-12-01T01:09:25.920Z,1000.75
2017-12-01T01:10:01.313Z,1000.75
2017-12-01T01:10:36.921Z,1000.76
2017-12-01T01:11:12.140Z,1000.78
2017-12-01T01:11:47.451Z,1000.82
2017-12-01T01:12:22.758Z,1000.82
2017-12-01T01:12:58.254Z,1000.83
2017-12-01T01:13:33.768Z,1000.87
2017-12-01T01:14:09.254Z,1000.83
2017-12-01T01:14:44.765Z,1000.86
2017-12-01T01:15:19.882Z,1000.89
2017-12-01T01:15:55.271Z,1000.86
2017-12-01T01:16:30.813Z,1000.85
2017-12-01T01:17:06.101Z,1000.83
2017-12-01T01:17:41.122Z,1000.87
2017-12-01T01:18:16.336Z,1000.85
2017-12-01T01:18:51.717Z,1000.87
2017-12-01T01:19:27.246Z,1000.84
2017-12-01T01:20:02.529Z,1000.84
2017-12-01T01:20:37.747Z,1000.87
2017-12-01T01:21:13.033Z,1000.86
2017-12-01T01:21:48.469Z,1000.85
2017-12-01T01:22:23.789Z,1000.88
2017-12-01T01:22:58.974Z,1000.87
2017-12-01T01:23:34.190Z,1000.86
2017-12-01T01:24:09.293Z,1000.88
2017-12-01T01:24:44.694Z,1000.89
2017-12-01T01:25:19.906Z,1000.86
2017-12-01T01:25:55.388Z,1000.92
2017-12-01T01:26:30.705Z,1000.92
2017-12-01T01:27:05.916Z,1000.94
2017-12-01T01:27:41.224Z,1000.97
2017-12-01T01:28:16.541Z,1000.93
2017-12-01T01:28:51.624Z,1000.97
2017-12-01T01:29:27.073Z,1000.99
2017-12-01T01:30:02.369Z,1000.99
2017-12-01T01:30:38.098Z,1001.00
2017-12-01T01:31:13.374Z,1000.99
2017-12-01T01:31:48.417Z,1001.04
2017-12-01T01:32:23.657Z,1001.00
2017-12-01T01:32:59.210Z,1001.06
2017-12-01T01:33:35.724Z,1001.00
2017-12-01T01:34:10.811Z,1001.04
2017-12-01T01:34:46.023Z,1001.03
2017-12-01T01:35:21.034Z,1001.05
2017-12-01T01:35:56.525Z,1001.07
2017-12-01T01:36:31.929Z,1001.06
2017-12-01T01:37:07.548Z,1001.12
2017-12-01T01:37:42.861Z,1001.07
2017-12-01T01:38:18.088Z,1001.08
2017-12-01T01:38:53.620Z,1001.06
2017-12-01T01:39:29.222Z,1001.09
2017-12-01T01:40:04.311Z,1001.09
2017-12-01T01:40:39.732Z,1001.11
2017-12-01T01:41:15.354Z,1001.10
2017-12-01T01:41:50.972Z,1001.10
2017-12-01T01:42:26.288Z,1001.10
2017-12-01T01:43:01.574Z,1001.11
2017-12-01T01:43:37.186Z,1001.12
2017-12-01T01:44:12.793Z,1001.09
2017-12-01T01:44:48.127Z,1001.11
2017-12-01T01:45:23.727Z,1001.12
2017-12-01T01:45:59.349Z,1001.13
2017-12-01T01:46:34.865Z,1001.16
2017-12-01T01:47:10.283Z,1001.15
2017-12-01T01:47:45.590Z,1001.17
2017-12-01T01:48:21.002Z,1001.17
2017-12-01T01:48:56.014Z,1001.19
2017-12-01T01:49:31.705Z,1001.20
2017-12-01T01:50:07.291Z,1001.19
2017-12-01T01:50:42.805Z,1001.21
2017-12-01T01:51:18.418Z,1001.19
2017-12-01T01:51:53.429Z,1001.21
2017-12-01T01:52:28.948Z,1001.22
2017-12-01T01:53:03.835Z,1001.21
2017-12-01T01:53:39.456Z,1001.26
2017-12-01T01:54:14.775Z,1001.22
2017-12-01T01:54:50.070Z,1001.29
2017-12-01T01:55:25.583Z,1001.25
2017-12-01T01:56:01.567Z,1001.25
2017-12-01T01:56:37.085Z,1001.27
2017-12-01T01:57:12.605Z,1001.27
2017-12-01T01:57:48.025Z,1001.27
2017-12-01T01:58:23.536Z,1001.25
2017-12-01T01:58:58.622Z,1001.29
2017-12-01T01:59:34.239Z,1001.29
2017-12-01T02:00:09.625Z,1001.24
2017-12-01T02:00:44.847Z,1001.29
2017-12-01T02:01:20.168Z,1001.30
2017-12-01T02:01:55.460Z,1001.30
2017-12-01T02:02:30.796Z,1001.35
2017-12-01T02:03:06.293Z,1001.33
2017-12-01T02:03:41.485Z,1001.33
2017-12-01T02:04:16.691Z,1001.39
2017-12-01T02:04:52.375Z,1001.35
2017-12-01T02:05:27.776Z,1001.36
2017-12-01T02:06:03.067Z,1001.39
2017-12-01T02:06:38.270Z,1001.36
2017-12-01T02:07:13.603Z,1001.40
2017-12-01T02:07:48.889Z,1001.43
2017-12-01T02:08:24.213Z,1001.42
2017-12-01T02:08:59.295Z,1001.44
2017-12-01T02:09:34.896Z,1001.44
2017-12-01T02:10:10.389Z,1001.47
2017-12-01T02:10:45.605Z,1001.47
2017-12-01T02:11:21.002Z,1001.48
2017-12-01T02:11:56.181Z,1001.46
2017-12-01T02:12:31.528Z,1001.49
2017-12-01T02:13:06.731Z,1001.46
2017-12-01T02:13:42.137Z,1001.49
2017-12-01T02:14:17.452Z,1001.49
2017-12-01T02:14:53.030Z,1001.46
2017-12-01T02:15:28.333Z,1001.48
2017-12-01T02:16:03.814Z,1001.47
2017-12-01T02:16:40.319Z,1001.50
2017-12-01T02:17:15.672Z,1001.46
2017-12-01T02:17:51.160Z,1001.49
2017-12-01T02:18:26.765Z,1001.48
2017-12-01T02:19:02.062Z,1001.46
2017-12-01T02:19:37.778Z,1001.49
2017-12-01T02:20:13.005Z,1001.53
2017-12-01T02:20:48.620Z,1001.50
2017-12-01T02:21:23.927Z,1001.53
2017-12-01T02:21:59.213Z,1001.54
2017-12-01T02:22:34.677Z,1001.55
2017-12-01T02:23:10.058Z,1001.55
2017-12-01T02:23:45.483Z,1001.58
2017-12-01T02:24:20.603Z,1001.63
2017-12-01T02:24:55.982Z,1001.57
2017-12-01T02:25:31.102Z,1001.58
2017-12-01T02:26:06.404Z,1001.58
2017-12-01T02:26:41.734Z,1001.61
2017-12-01T02:27:17.372Z,1001.61
2017-12-01T02:27:52.756Z,1001.62
2017-12-01T02:28:28.064Z,1001.60
2017-12-01T02:29:03.260Z,1001.62
2017-12-01T02:29:38.668Z,1001.64
2017-12-01T02:30:14.277Z,1001.63
2017-12-01T02:30:49.355Z,1001.67
2017-12-01T02:31:24.769Z,1001.63
2017-12-01T02:32:00.155Z,1001.64
2017-12-01T02:32:35.195Z,1001.64
2017-12-01T02:33:10.878Z,1001.65
2017-12-01T02:33:46.192Z,1001.65
2017-12-01T02:34:21.711Z,1001.64
2017-12-01T02:34:57.101Z,1001.65
2017-12-01T02:35:32.509Z,1001.68
2017-12-01T02:36:07.812Z,1001.72
2017-12-01T02:36:43.338Z,1001.69
2017-12-01T02:37:18.873Z,1001.73
2017-12-01T02:37:54.179Z,1001.70
2017-12-01T02:38:29.698Z,1001.73
2017-12-01T02:39:04.581Z,1001.73
2017-12-01T02:39:39.986Z,1001.76
2017-12-01T02:40:15.186Z,1001.73
2017-12-01T02:40:50.297Z,1001.77
2017-12-01T02:41:25.504Z,1001.75
2017-12-01T02:42:00.688Z,1001.75
2017-12-01T02:42:36.015Z,1001.76
2017-12-01T02:43:11.415Z,1001.77
2017-12-01T02:43:46.730Z,1001.80
2017-12-01T02:44:22.038Z,1001.79
2017-12-01T02:44:57.122Z,1001.81
2017-12-01T02:45:32.339Z,1001.84
2017-12-01T02:46:07.718Z,1001.81
2017-12-01T02:46:43.220Z,1001.80
2017-12-01T02:47:18.540Z,1001.87
2017-12-01T02:47:53.951Z,1001.83
2017-12-01T02:48:29.285Z,1001.86
2017-12-01T02:49:04.661Z,1001.81
2017-12-01T02:49:40.073Z,1001.88
2017-12-01T02:50:15.403Z,1001.90
2017-12-01T02:50:50.889Z,1001.89
2017-12-01T02:51:26.101Z,1001.90
2017-12-01T02:52:01.179Z,1001.90
2017-12-01T02:52:36.504Z,1001.93
2017-12-01T02:53:11.904Z,1001.92
2017-12-01T02:53:47.025Z,1001.92
2017-12-01T02:54:22.139Z,1001.95
2017-12-01T02:54:57.340Z,1001.93
2017-12-01T02:55:32.842Z,1001.94
2017-12-01T02:56:08.040Z,1001.96
2017-12-01T02:56:43.336Z,1001.96
2017-12-01T02:57:18.852Z,1001.98
2017-12-01T02:57:54.349Z,1001.98
2017-12-01T02:58:29.568Z,1002.01
2017-12-01T02:59:05.455Z,1002.01
2017-12-01T02:59:40.860Z,1002.01
2017-12-01T03:00:16.365Z,1002.02
2017-12-01T03:00:51.782Z,1002.03
2017-12-01T03:01:26.981Z,1002.09
2017-12-01T03:02:02.361Z,1002.07
2017-12-01T03:02:37.868Z,1002.07
2017-12-01T03:03:13.378Z,1002.09
2017-12-01T03:03:48.682Z,1002.09
2017-12-01T03:04:23.962Z,1002.07
2017-12-01T03:04:59.183Z,1002.11
2017-12-01T03:05:34.367Z,1002.08
2017-12-01T03:06:09.868Z,1002.08
2017-12-01T03:06:45.254Z,1002.07
2017-12-01T03:07:20.570Z,1002.05
2017-12-01T03:07:55.674Z,1002.05
2017-12-01T03:08:31.187Z,1002.06
2017-12-01T03:09:06.694Z,1002.03
2017-12-01T03:09:42.090Z,1002.05
2017-12-01T03:10:17.604Z,1002.06
2017-12-01T03:10:53.380Z,1002.02
2017-12-01T03:11:28.693Z,1002.03
2017-12-01T03:12:04.107Z,1002.03
2017-12-01T03:12:39.289Z,1002.02
2017-12-01T03:13:14.810Z,1002.06
2017-12-01T03:13:50.196Z,1002.05
2017-12-01T03:14:25.798Z,1002.08
2017-12-01T03:15:01.088Z,1002.07
2017-12-01T03:15:36.315Z,1002.05
2017-12-01T03:16:11.540Z,1002.04
2017-12-01T03:16:46.819Z,1002.08
2017-12-01T03:17:22.254Z,1002.07
2017-12-01T03:17:57.555Z,1002.09
2017-12-01T03:18:32.757Z,1002.09
2017-12-01T03:19:08.277Z,1002.07
2017-12-01T03:19:43.449Z,1002.07
2017-12-01T03:20:19.057Z,1002.07
2017-12-01T03:20:54.450Z,1002.10
2017-12-01T03:21:31.058Z,1002.12
2017-12-01T03:22:06.371Z,1002.13
2017-12-01T03:22:41.949Z,1002.13
2017-12-01T03:23:17.180Z,1002.14
2017-12-01T03:23:52.357Z,1002.14
2017-12-01T03:24:27.777Z,1002.16
2017-12-01T03:25:03.071Z,1002.20
2017-12-01T03:25:38.291Z,1002.18
2017-12-01T03:26:14.089Z,1002.22
2017-12-01T03:26:49.285Z,1002.22
2017-12-01T03:27:24.491Z,1002.19
2017-12-01T03:27:59.696Z,1002.21
2017-12-01T03:28:35.197Z,1002.22
2017-12-01T03:29:10.604Z,1002.28
2017-12-01T03:29:46.291Z,1002.28
2017-12-01T03:30:21.810Z,1002.27
2017-12-01T03:30:57.091Z,1002.27
2017-12-01T03:31:32.404Z,1002.27
2017-12-01T03:32:07.910Z,1002.31
2017-12-01T03:32:43.090Z,1002.32
2017-12-01T03:33:18.520Z,1002.29
2017-12-01T03:33:53.804Z,1002.33
2017-12-01T03:34:29.308Z,1002.36
2017-12-01T03:35:04.704Z,1002.35
2017-12-01T03:35:40.089Z,1002.33
2017-12-01T03:36:15.386Z,1002.35
2017-12-01T03:36:50.627Z,1002.38
2017-12-01T03:37:25.986Z,1002.35
2017-12-01T03:38:01.166Z,1002.39
2017-12-01T03:38:36.501Z,1002.43
2017-12-01T03:39:11.803Z,1002.39
2017-12-01T03:39:47.089Z,1002.42
2017-12-01T03:40:22.091Z,1002.43
2017-12-01T03:40:57.369Z,1002.40
2017-12-01T03:41:32.694Z,1002.43
2017-12-01T03:42:08.004Z,1002.44
2017-12-01T03:42:43.181Z,1002.45
2017-12-01T03:43:18.313Z,1002.46
2017-12-01T03:43:53.493Z,1002.47
2017-12-01T03:44:29.000Z,1002.49
2017-12-01T03:45:04.304Z,1002.49
2017-12-01T03:45:39.285Z,1002.49
2017-12-01T03:46:14.493Z,1002.47
2017-12-01T03:46:49.669Z,1002.49
2017-12-01T03:47:24.877Z,1002.48
2017-12-01T03:48:00.178Z,1002.53
2017-12-01T03:48:35.503Z,1002.51
2017-12-01T03:49:10.813Z,1002.56
2017-12-01T03:49:45.988Z,1002.54
2017-12-01T03:50:21.596Z,1002.51
2017-12-01T03:50:57.084Z,1002.54
2017-12-01T03:51:32.180Z,1002.50
2017-12-01T03:52:07.385Z,1002.55
2017-12-01T03:52:42.786Z,1002.56
2017-12-01T03:53:18.205Z,1002.54
2017-12-01T03:53:53.587Z,1002.56
2017-12-01T03:54:28.797Z,1002.60
2017-12-01T03:55:04.217Z,1002.58
2017-12-01T03:55:39.600Z,1002.59
2017-12-01T03:56:15.408Z,1002.62
2017-12-01T03:56:50.816Z,1002.59
2017-12-01T03:57:26.254Z,1002.64
2017-12-01T03:58:01.741Z,1002.67
2017-12-01T03:58:36.972Z,1002.66
2017-12-01T03:59:12.286Z,1002.68
2017-12-01T03:59:47.367Z,1002.72
2017-12-01T04:00:22.476Z,1002.71
2017-12-01T04:00:57.851Z,1002.73
2017-12-01T04:01:33.157Z,1002.72
2017-12-01T04:02:08.568Z,1002.76
2017-12-01T04:02:43.658Z,1002.74
2017-12-01T04:03:19.177Z,1002.78
2017-12-01T04:03:54.375Z,1002.77
2017-12-01T04:04:29.683Z,1002.81
2017-12-01T04:05:05.200Z,1002.76
2017-12-01T04:05:40.571Z,1002.76
2017-12-01T04:06:15.781Z,1002.83
2017-12-01T04:06:51.173Z,1002.82
2017-12-01T04:07:26.194Z,1002.84
2017-12-01T04:08:01.373Z,1002.84
2017-12-01T04:08:36.594Z,1002.85
2017-12-01T04:09:11.797Z,1002.88
2017-12-01T04:09:47.395Z,1002.87
2017-12-01T04:10:23.102Z,1002.91
2017-12-01T04:10:58.482Z,1002.91
2017-12-01T04:11:34.115Z,1002.95
2017-12-01T04:12:09.424Z,1002.95
2017-12-01T04:12:44.705Z,1002.99
2017-12-01T04:13:19.903Z,1002.96
2017-12-01T04:13:55.019Z,1002.97
2017-12-01T04:14:30.428Z,1003.00
2017-12-01T04:15:05.832Z,1003.00
2017-12-01T04:15:41.212Z,1003.05
2017-12-01T04:16:16.520Z,1003.05
2017-12-01T04:16:51.901Z,1003.07
2017-12-01T04:17:27.102Z,1003.04
2017-12-01T04:18:02.601Z,1003.06
2017-12-01T04:18:37.951Z,1003.10
2017-12-01T04:19:13.354Z,1003.08
2017-12-01T04:19:48.844Z,1003.09
2017-12-01T04:20:24.245Z,1003.09
2017-12-01T04:20:59.724Z,1003.07
2017-12-01T04:21:35.033Z,1003.15
2017-12-01T04:22:10.142Z,1003.16
2017-12-01T04:22:45.327Z,1003.13
2017-12-01T04:23:20.730Z,1003.17
2017-12-01T04:23:55.944Z,1003.15
2017-12-01T04:24:31.450Z,1003.18
2017-12-01T04:25:06.763Z,1003.17
2017-12-01T04:25:42.347Z,1003.20
2017-12-01T04:26:17.556Z,1003.18
2017-12-01T04:26:53.159Z,1003.20
2017-12-01T04:27:28.488Z,1003.22
2017-12-01T04:28:03.494Z,1003.23
2017-12-01T04:28:38.802Z,1003.23
2017-12-01T04:29:14.208Z,1003.22
2017-12-01T04:29:49.286Z,1003.26
2017-12-01T04:30:24.703Z,1003.21
2017-12-01T04:30:59.883Z,1003.25
2017-12-01T04:31:35.387Z,1003.26
2017-12-01T04:32:10.899Z,1003.26
2017-12-01T04:32:46.076Z,1003.26
2017-12-01T04:33:21.176Z,1003.30
2017-12-01T04:33:56.889Z,1003.30
2017-12-01T04:34:32.217Z,1003.33
2017-12-01T04:35:07.532Z,1003.33
2017-12-01T04:35:42.710Z,1003.38
2017-12-01T04:36:18.309Z,1003.34
2017-12-01T04:36:53.398Z,1003.37
2017-12-01T04:37:28.604Z,1003.40
2017-12-01T04:38:03.916Z,1003.40
2017-12-01T04:38:39.204Z,1003.41
2017-12-01T04:39:14.841Z,1003.40
2017-12-01T04:39:50.120Z,1003.40
2017-12-01T04:40:25.571Z,1003.43
2017-12-01T04:41:00.741Z,1003.43
2017-12-01T04:41:36.256Z,1003.46
2017-12-01T04:42:11.687Z,1003.47
2017-12-01T04:42:47.353Z,1003.47
2017-12-01T04:43:22.958Z,1003.43
2017-12-01T04:43:58.183Z,1003.44
2017-12-01T04:44:33.514Z,1003.48
2017-12-01T04:45:08.612Z,1003.52
2017-12-01T04:45:43.898Z,1003.52
2017-12-01T04:46:19.192Z,1003.50
2017-12-01T04:46:54.487Z,1003.52
2017-12-01T04:47:29.801Z,1003.55
2017-12-01T04:48:05.207Z,1003.53
2017-12-01T04:48:40.495Z,1003.55
2017-12-01T04:49:15.730Z,1003.57
2017-12-01T04:49:51.408Z,1003.56
2017-12-01T04:50:26.911Z,1003.59
2017-12-01T04:51:01.993Z,1003.61
2017-12-01T04:51:37.715Z,1003.63
2017-12-01T04:52:13.118Z,1003.63
2017-12-01T04:52:48.311Z,1003.64
2017-12-01T04:53:23.921Z,1003.65
2017-12-01T04:53:59.329Z,1003.68
2017-12-01T04:54:34.829Z,1003.68
2017-12-01T04:55:10.436Z,1003.68
2017-12-01T04:55:45.728Z,1003.69
2017-12-01T04:56:20.927Z,1003.69
2017-12-01T04:56:56.539Z,1003.69
2017-12-01T04:57:31.822Z,1003.69
2017-12-01T04:58:07.032Z,1003.69
2017-12-01T04:58:42.208Z,1003.69
2017-12-01T04:59:17.444Z,1003.70
2017-12-01T04:59:53.036Z,1003.74
2017-12-01T05:00:28.344Z,1003.74
2017-12-01T05:01:03.885Z,1003.77
2017-12-01T05:01:39.356Z,1003.77
2017-12-01T05:02:14.558Z,1003.74
2017-12-01T05:02:49.832Z,1003.76
2017-12-01T05:03:25.138Z,1003.74
2017-12-01T05:04:00.631Z,1003.82
2017-12-01T05:04:35.975Z,1003.82
2017-12-01T05:05:11.157Z,1003.79
2017-12-01T05:05:46.359Z,1003.81
2017-12-01T05:06:21.878Z,1003.85
2017-12-01T05:06:57.361Z,1003.81
2017-12-01T05:07:32.466Z,1003.86
2017-12-01T05:08:07.743Z,1003.87
2017-12-01T05:08:43.165Z,1003.85
2017-12-01T05:09:18.469Z,1003.84
2017-12-01T05:09:53.774Z,1003.88
2017-12-01T05:10:28.790Z,1003.88
2017-12-01T05:11:04.173Z,1003.86
2017-12-01T05:11:39.580Z,1003.86
2017-12-01T05:12:14.961Z,1003.88
2017-12-01T05:12:50.263Z,1003.90
2017-12-01T05:13:25.942Z,1003.88
2017-12-01T05:14:01.344Z,1003.89
2017-12-01T05:14:36.489Z,1003.90
2017-12-01T05:15:11.777Z,1003.87
2017-12-01T05:15:46.887Z,1003.88
2017-12-01T05:16:22.171Z,1003.89
2017-12-01T05:16:57.493Z,1003.91
2017-12-01T05:17:32.803Z,1003.91
2017-12-01T05:18:08.208Z,1003.98
2017-12-01T05:18:43.385Z,1003.91
2017-12-01T05:19:19.019Z,1003.91
2017-12-01T05:19:54.233Z,1003.94
2017-12-01T05:20:29.648Z,1003.93
2017-12-01T05:21:04.960Z,1003.94
2017-12-01T05:21:40.288Z,1003.95
2017-12-01T05:22:15.538Z,1003.99
2017-12-01T05:22:50.946Z,1003.98
2017-12-01T05:23:26.125Z,1003.97
2017-12-01T05:24:01.425Z,1003.98
2017-12-01T05:24:36.542Z,1004.00
2017-12-01T05:25:11.940Z,1003.98
2017-12-01T05:25:47.163Z,1004.03
2017-12-01T05:26:22.543Z,1004.01
2017-12-01T05:26:57.949Z,1004.03
2017-12-01T05:27:33.626Z,1004.01
2017-12-01T05:28:08.837Z,1004.05
2017-12-01T05:28:44.339Z,1003.99
2017-12-01T05:29:19.614Z,1004.07
2017-12-01T05:29:54.964Z,1004.06
2017-12-01T05:30:30.270Z,1004.10
2017-12-01T05:31:05.469Z,1004.09
2017-12-01T05:31:40.957Z,1004.09
2017-12-01T05:32:16.567Z,1004.11
2017-12-01T05:32:51.966Z,1004.08
2017-12-01T05:33:27.455Z,1004.09
2017-12-01T05:34:03.174Z,1004.09
2017-12-01T05:34:38.575Z,1004.15
2017-12-01T05:35:14.083Z,1004.12
2017-12-01T05:35:49.491Z,1004.14
2017-12-01T05:36:24.967Z,1004.18
2017-12-01T05:37:00.573Z,1004.15
2017-12-01T05:37:35.758Z,1004.16
2017-12-01T05:38:11.196Z,1004.16
2017-12-01T05:38:46.498Z,1004.13
2017-12-01T05:39:21.985Z,1004.17
2017-12-01T05:39:57.216Z,1004.19
2017-12-01T05:40:32.698Z,1004.22
2017-12-01T05:41:08.202Z,1004.25
2017-12-01T05:41:43.502Z,1004.25
2017-12-01T05:42:19.023Z,1004.31
2017-12-01T05:42:54.332Z,1004.28
2017-12-01T05:43:30.015Z,1004.34
2017-12-01T05:44:05.621Z,1004.35
2017-12-01T05:44:40.824Z,1004.35
2017-12-01T05:45:16.124Z,1004.36
2017-12-01T05:45:51.626Z,1004.33
2017-12-01T05:46:27.225Z,1004.36
2017-12-01T05:47:02.434Z,1004.38
2017-12-01T05:47:37.720Z,1004.43
2017-12-01T05:48:12.919Z,1004.41
2017-12-01T05:48:48.336Z,1004.41
2017-12-01T05:49:23.415Z,1004.45
2017-12-01T05:49:58.845Z,1004.47
2017-12-01T05:50:34.044Z,1004.51
2017-12-01T05:51:09.659Z,1004.49
2017-12-01T05:51:44.967Z,1004.49
2017-12-01T05:52:20.245Z,1004.48
2017-12-01T05:52:55.451Z,1004.53
2017-12-01T05:53:30.633Z,1004.44
2017-12-01T05:54:05.832Z,1004.49
2017-12-01T05:54:41.143Z,1004.49
2017-12-01T05:55:16.446Z,1004.54
2017-12-01T05:55:51.977Z,1004.46
2017-12-01T05:56:27.154Z,1004.54
2017-12-01T05:57:02.455Z,1004.53
2017-12-01T05:57:37.752Z,1004.54
2017-12-01T05:58:13.156Z,1004.55
2017-12-01T05:58:48.575Z,1004.54
2017-12-01T05:59:23.957Z,1004.57
2017-12-01T05:59:59.302Z,1004.57
2017-12-01T06:00:34.586Z,1004.58
2017-12-01T06:01:09.908Z,1004.58
2017-12-01T06:01:45.190Z,1004.63
2017-12-01T06:02:20.904Z,1004.61
2017-12-01T06:02:56.189Z,1004.62
2017-12-01T06:03:31.693Z,1004.62
2017-12-01T06:04:06.877Z,1004.68
2017-12-01T06:04:42.303Z,1004.64
2017-12-01T06:05:17.711Z,1004.65
2017-12-01T06:05:53.017Z,1004.64
2017-12-01T06:06:28.303Z,1004.64
2017-12-01T06:07:03.813Z,1004.68
2017-12-01T06:07:39.507Z,1004.65
2017-12-01T06:08:14.615Z,1004.65
2017-12-01T06:08:50.198Z,1004.64
2017-12-01T06:09:25.415Z,1004.68
2017-12-01T06:10:00.813Z,1004.69
2017-12-01T06:10:36.126Z,1004.67
2017-12-01T06:11:11.842Z,1004.66
2017-12-01T06:11:47.451Z,1004.69
2017-12-01T06:12:22.830Z,1004.71
2017-12-01T06:12:58.044Z,1004.68
2017-12-01T06:13:33.226Z,1004.68
2017-12-01T06:14:08.727Z,1004.70
2017-12-01T06:14:44.112Z,1004.69
2017-12-01T06:15:19.762Z,1004.72
2017-12-01T06:15:55.133Z,1004.73
2017-12-01T06:16:30.343Z,1004.77
2017-12-01T06:17:05.726Z,1004.74
2017-12-01T06:17:41.044Z,1004.74
2017-12-01T06:18:16.224Z,1004.78
2017-12-01T06:18:51.337Z,1004.78
2017-12-01T06:19:26.523Z,1004.81
2017-12-01T06:20:01.935Z,1004.82
2017-12-01T06:20:37.042Z,1004.80
2017-12-01T06:21:12.244Z,1004.82
2017-12-01T06:21:47.435Z,1004.82
2017-12-01T06:22:22.851Z,1004.82
2017-12-01T06:22:58.016Z,1004.86
2017-12-01T06:23:33.435Z,1004.87
2017-12-01T06:24:08.817Z,1004.85
2017-12-01T06:24:44.142Z,1004.88
2017-12-01T06:25:19.343Z,1004.94
2017-12-01T06:25:54.573Z,1004.90
2017-12-01T06:26:29.673Z,1004.90
2017-12-01T06:27:05.198Z,1004.91
2017-12-01T06:27:40.481Z,1004.91
2017-12-01T06:28:16.143Z,1004.92
2017-12-01T06:28:51.430Z,1004.94
2017-12-01T06:29:26.700Z,1004.97
2017-12-01T06:30:01.931Z,1004.93
2017-12-01T06:30:37.390Z,1004.95
2017-12-01T06:31:12.695Z,1004.96
2017-12-01T06:31:47.926Z,1004.96
2017-12-01T06:32:23.388Z,1004.97
2017-12-01T06:32:58.993Z,1005.02
2017-12-01T06:33:34.090Z,1005.02
2017-12-01T06:34:09.439Z,1005.03
2017-12-01T06:34:44.825Z,1005.06
2017-12-01T06:35:20.170Z,1005.05
2017-12-01T06:35:55.454Z,1005.09
2017-12-01T06:36:31.087Z,1005.07
2017-12-01T06:37:06.562Z,1005.10
2017-12-01T06:37:41.980Z,1005.11
2017-12-01T06:38:17.361Z,1005.12
2017-12-01T06:38:52.769Z,1005.15
2017-12-01T06:39:28.430Z,1005.17
2017-12-01T06:40:03.911Z,1005.17
2017-12-01T06:40:39.234Z,1005.19
2017-12-01T06:41:14.664Z,1005.22
2017-12-01T06:41:50.140Z,1005.22
2017-12-01T06:42:25.705Z,1005.22
2017-12-01T06:43:00.796Z,1005.23
2017-12-01T06:43:36.019Z,1005.23
2017-12-01T06:44:11.210Z,1005.27
2017-12-01T06:44:46.626Z,1005.26
2017-12-01T06:45:22.139Z,1005.29
2017-12-01T06:45:57.540Z,1005.28
2017-12-01T06:46:32.925Z,1005.29
2017-12-01T06:47:08.541Z,1005.30
2017-12-01T06:47:43.819Z,1005.28
2017-12-01T06:48:19.067Z,1005.32
2017-12-01T06:48:54.492Z,1005.32
2017-12-01T06:49:29.848Z,1005.31
2017-12-01T06:50:05.347Z,1005.31
2017-12-01T06:50:40.582Z,1005.31
2017-12-01T06:51:16.468Z,1005.34
2017-12-01T06:51:51.476Z,1005.36
2017-12-01T06:52:27.068Z,1005.34
2017-12-01T06:53:02.480Z,1005.38
2017-12-01T06:53:37.765Z,1005.38
2017-12-01T06:54:13.075Z,1005.37
2017-12-01T06:54:48.462Z,1005.43
2017-12-01T06:55:23.818Z,1005.43
2017-12-01T06:55:59.501Z,1005.41
2017-12-01T06:56:34.720Z,1005.45
2017-12-01T06:57:10.408Z,1005.43
2017-12-01T06:57:46.019Z,1005.40
2017-12-01T06:58:21.292Z,1005.44
2017-12-01T06:58:56.768Z,1005.44
2017-12-01T06:59:31.846Z,1005.48
2017-12-01T07:00:07.161Z,1005.46
2017-12-01T07:00:42.411Z,1005.48
2017-12-01T07:01:17.918Z,1005.50
2017-12-01T07:01:53.307Z,1005.51
2017-12-01T07:02:28.611Z,1005.55
2017-12-01T07:03:04.314Z,1005.56
2017-12-01T07:03:39.534Z,1005.57
2017-12-01T07:04:15.238Z,1005.55
2017-12-01T07:04:50.449Z,1005.58
2017-12-01T07:05:25.723Z,1005.56
2017-12-01T07:06:00.957Z,1005.59
2017-12-01T07:06:36.384Z,1005.58
2017-12-01T07:07:11.804Z,1005.59
2017-12-01T07:07:46.883Z,1005.62